Home > Products > Valid Products > FWO

000
SHUS65 KGJT 252014
FWOGJT

DAILY FIRE WEATHER OBSERVATION
NATIONAL WEATHER SERVICE GRAND JUNCTION CO
214 PM MDT SAT OCT 25 2014

STATE OF THE WEATHER (W)               0
DRY BULB TEMPERATURE                   71   DEGREES FAHRENHEIT
RELATIVE HUMIDITY (RH)                 20   PERCENT
LIGHTNING ACTIVITY LEVEL
  (LAL - MIDNIGHT TO 2 PM)             1
WIND DIRECTION                         C    DEGREES (C IF CALM)
WIND SPEED                             0    MPH
MAX TEMP (2 PM - 2 PM)                 74   DEGREES FAHRENHEIT
MIN TEMP (2 PM - 2 PM)                 40   DEGREES FAHRENHEIT
MAX RH (2 PM - 2 PM)                   62   PERCENT
MIN RH (2 PM - 2 PM)                   20   PERCENT
PCPN DURATION                          0.0  HOURS
PCPN AMT (2 PM - 2 PM)                 0.0  INCHES
LAL (2 PM - 2 PM)                      1

$$

METAR KGJT 251953Z 00000KT 10SM CLR 22/M02 A3015 RMK AO2 SLP166
      T02171022





000
SHUS65 KGJT 242020
FWOGJT

DAILY FIRE WEATHER OBSERVATION
NATIONAL WEATHER SERVICE GRAND JUNCTION CO
219 PM MDT FRI OCT 24 2014

STATE OF THE WEATHER (W)               0
DRY BULB TEMPERATURE                   69   DEGREES FAHRENHEIT
RELATIVE HUMIDITY (RH)                 26   PERCENT
LIGHTNING ACTIVITY LEVEL
  (LAL - MIDNIGHT TO 2 PM)             1
WIND DIRECTION                         C    DEGREES (C IF CALM)
WIND SPEED                             0    MPH
MAX TEMP (2 PM - 2 PM)                 70   DEGREES FAHRENHEIT
MIN TEMP (2 PM - 2 PM)                 37   DEGREES FAHRENHEIT
MAX RH (2 PM - 2 PM)                   79   PERCENT
MIN RH (2 PM - 2 PM)                   26   PERCENT
PCPN DURATION                          0.0  HOURS
PCPN AMT (2 PM - 2 PM)                 0.0  INCHES
LAL (2 PM - 2 PM)                      1

$$

METAR KGJT 241953Z 00000KT 10SM CLR 21/01 A3025 RMK AO2 SLP197
      T02060006





000
SHUS65 KGJT 232016
FWOGJT

DAILY FIRE WEATHER OBSERVATION
NATIONAL WEATHER SERVICE GRAND JUNCTION CO
212 PM MDT THU OCT 23 2014

STATE OF THE WEATHER (W)               0
DRY BULB TEMPERATURE                   68   DEGREES FAHRENHEIT
RELATIVE HUMIDITY (RH)                 33   PERCENT
LIGHTNING ACTIVITY LEVEL
  (LAL - MIDNIGHT TO 2 PM)             1
WIND DIRECTION                         270  DEGREES (C IF CALM)
WIND SPEED                             5    MPH
MAX TEMP (2 PM - 2 PM)                 69   DEGREES FAHRENHEIT
MIN TEMP (2 PM - 2 PM)                 41   DEGREES FAHRENHEIT
MAX RH (2 PM - 2 PM)                   82   PERCENT
MIN RH (2 PM - 2 PM)                   33   PERCENT
PCPN DURATION                          0.0  HOURS
PCPN AMT (2 PM - 2 PM)                 0.0  INCHES
LAL (2 PM - 2 PM)                      1

$$

METAR KGJT 231953Z 28004KT 10SM CLR 20/03 A3020 RMK AO2 SLP187
      T02000033





    US Dept of Commerce
    National Oceanic and Atmospheric Administration
    National Weather Service
    1325 East West Highway
    Silver Spring, MD 20910
    Page Author: NWS Internet Services Team
Disclaimer
Information Quality
Credits
Glossary
Privacy Policy
Freedom of Information Act (FOIA)
About Us
Career Opportunities